createdAt,value
2023-06-28T00:02:01.025Z,99317.64
2023-06-28T00:04:29.878Z,99311.81
2023-06-28T00:06:59.261Z,99304.60
2023-06-28T00:09:29.227Z,99302.94
2023-06-28T00:11:58.917Z,99314.03
2023-06-28T00:14:27.715Z,99320.13
2023-06-28T00:16:56.400Z,99321.23
2023-06-28T00:19:26.833Z,99314.30
2023-06-28T00:21:59.300Z,99312.08
2023-06-28T00:24:28.692Z,99319.56
2023-06-28T00:26:57.390Z,99320.41
2023-06-28T00:29:26.092Z,99318.17
2023-06-28T00:31:55.255Z,99320.95
2023-06-28T00:34:24.925Z,99319.84
2023-06-28T00:36:55.350Z,99324.82
2023-06-28T00:39:24.312Z,99321.49
2023-06-28T00:41:54.334Z,99318.72
2023-06-28T00:44:23.365Z,99319.83
2023-06-28T00:46:52.101Z,99318.73
2023-06-28T00:49:29.540Z,99310.13
2023-06-28T00:51:59.988Z,99313.46
2023-06-28T00:54:30.652Z,99311.25
2023-06-28T00:57:01.416Z,99308.20
2023-06-28T00:59:30.454Z,99298.48
2023-06-28T01:01:59.105Z,99297.38
2023-06-28T01:04:27.786Z,99298.48
2023-06-28T01:06:56.295Z,99294.33
2023-06-28T01:09:26.075Z,99298.77
2023-06-28T01:11:55.403Z,99292.94
2023-06-28T01:14:25.198Z,99293.77
2023-06-28T01:16:57.369Z,99299.00
2023-06-28T01:19:27.697Z,99295.94
2023-06-28T01:22:00.505Z,99300.37
2023-06-28T01:24:29.305Z,99307.30
2023-06-28T01:26:59.443Z,99306.19
2023-06-28T01:29:30.440Z,99304.80
2023-06-28T01:31:59.945Z,99306.45
2023-06-28T01:34:30.449Z,99311.70
2023-06-28T01:37:01.644Z,99309.75
2023-06-28T01:39:31.325Z,99299.77
2023-06-28T01:42:00.630Z,99307.53
2023-06-28T01:44:30.533Z,99312.52
2023-06-28T01:46:59.022Z,99306.13
2023-06-28T01:49:28.731Z,99299.77
2023-06-28T01:51:57.143Z,99296.70
2023-06-28T01:54:28.494Z,99305.02
2023-06-28T01:56:56.940Z,99308.34
2023-06-28T01:59:25.534Z,99301.96
2023-06-28T02:01:54.138Z,99298.91
2023-06-28T02:04:23.030Z,99301.69
2023-06-28T02:06:51.508Z,99297.25
2023-06-28T02:09:20.837Z,99301.69
2023-06-28T02:11:49.829Z,99297.25
2023-06-28T02:14:19.091Z,99309.98
2023-06-28T02:16:47.889Z,99306.92
2023-06-28T02:19:17.271Z,99311.06
2023-06-28T02:21:47.607Z,99314.37
2023-06-28T02:24:16.302Z,99317.69
2023-06-28T02:26:45.640Z,99319.86
2023-06-28T02:29:16.461Z,99314.05
2023-06-28T02:31:45.560Z,99318.45
2023-06-28T02:34:14.240Z,99322.05
2023-06-28T02:36:42.601Z,99328.15
2023-06-28T02:39:12.120Z,99319.28
2023-06-28T02:41:41.723Z,99327.03
2023-06-28T02:44:10.410Z,99335.34
2023-06-28T02:46:40.145Z,99326.20
2023-06-28T02:49:09.075Z,99336.46
2023-06-28T02:51:39.252Z,99338.67
2023-06-28T02:54:09.922Z,99336.17
2023-06-28T02:56:39.680Z,99329.20
2023-06-28T02:59:17.509Z,99331.69
2023-06-28T03:01:46.158Z,99326.70
2023-06-28T03:04:16.088Z,99323.09
2023-06-28T03:06:51.654Z,99331.13
2023-06-28T03:09:22.279Z,99324.77
2023-06-28T03:11:50.998Z,99331.97
2023-06-28T03:14:20.187Z,99352.19
2023-06-28T03:16:49.780Z,99352.23
2023-06-28T03:19:18.995Z,99346.41
2023-06-28T03:21:48.360Z,99343.59
2023-06-28T03:24:18.081Z,99347.48
2023-06-28T03:26:48.005Z,99350.25
2023-06-28T03:29:16.585Z,99343.92
2023-06-28T03:31:45.612Z,99340.32
2023-06-28T03:34:14.566Z,99346.70
2023-06-28T03:36:58.587Z,99353.02
2023-06-28T03:39:19.072Z,99343.87
2023-06-28T03:41:47.591Z,99357.17
2023-06-28T03:44:16.415Z,99356.94
2023-06-28T03:46:46.324Z,99355.80
2023-06-28T03:49:15.010Z,99358.61
2023-06-28T03:51:44.013Z,99352.52
2023-06-28T03:54:14.743Z,99356.62
2023-06-28T03:56:44.075Z,99364.43
2023-06-28T03:59:14.917Z,99355.55
2023-06-28T04:01:46.421Z,99363.03
2023-06-28T04:04:14.592Z,99350.80
2023-06-28T04:06:43.478Z,99355.78
2023-06-28T04:09:12.791Z,99349.97
2023-06-28T04:11:42.605Z,99341.95
2023-06-28T04:14:12.230Z,99347.48
2023-06-28T04:16:42.123Z,99344.20
2023-06-28T04:19:12.338Z,99345.33
2023-06-28T04:21:41.664Z,99342.02
2023-06-28T04:24:10.133Z,99347.00
2023-06-28T04:26:39.149Z,99342.03
2023-06-28T04:29:07.708Z,99346.53
2023-06-28T04:31:36.350Z,99340.48
2023-06-28T04:34:06.521Z,99344.12
2023-06-28T04:36:35.426Z,99354.13
2023-06-28T04:39:08.302Z,99357.20
2023-06-28T04:41:37.442Z,99351.66
2023-06-28T04:44:07.723Z,99357.48
2023-06-28T04:46:36.158Z,99354.44
2023-06-28T04:49:07.242Z,99354.14
2023-06-28T04:51:35.018Z,99356.63
2023-06-28T04:54:03.350Z,99364.67
2023-06-28T04:56:33.652Z,99365.22
2023-06-28T04:59:02.019Z,99369.37
2023-06-28T05:01:31.960Z,99362.44
2023-06-28T05:04:00.820Z,99361.89
2023-06-28T05:06:29.713Z,99371.35
2023-06-28T05:08:59.366Z,99362.56
2023-06-28T05:11:28.766Z,99362.59
2023-06-28T05:13:57.110Z,99368.19
2023-06-28T05:16:25.690Z,99369.06
2023-06-28T05:18:54.799Z,99372.95
2023-06-28T05:21:24.081Z,99371.80
2023-06-28T05:23:53.283Z,99355.95
2023-06-28T05:26:22.285Z,99369.56
2023-06-28T05:28:50.868Z,99367.87
2023-06-28T05:31:19.674Z,99363.73
2023-06-28T05:33:48.366Z,99370.41
2023-06-28T05:36:18.665Z,99362.92
2023-06-28T05:38:47.146Z,99366.83
2023-06-28T05:41:17.696Z,99369.88
2023-06-28T05:43:47.010Z,99376.53
2023-06-28T05:46:16.190Z,99372.60
2023-06-28T05:48:46.808Z,99373.39
2023-06-28T05:51:15.600Z,99374.73
2023-06-28T05:53:44.241Z,99385.03
2023-06-28T05:56:12.673Z,99380.61
2023-06-28T05:58:41.461Z,99387.58
2023-06-28T06:01:11.295Z,99392.33
2023-06-28T06:03:41.186Z,99389.31
2023-06-28T06:06:09.979Z,99387.06
2023-06-28T06:08:38.685Z,99385.59
2023-06-28T06:11:07.467Z,99389.13
2023-06-28T06:13:35.841Z,99388.80
2023-06-28T06:16:04.871Z,99389.57
2023-06-28T06:18:35.275Z,99396.92
2023-06-28T06:21:03.993Z,99392.61
2023-06-28T06:23:32.829Z,99390.53
2023-06-28T06:26:01.034Z,99393.45
2023-06-28T06:28:32.460Z,99386.69
2023-06-28T06:31:00.801Z,99392.83
2023-06-28T06:33:31.377Z,99400.30
2023-06-28T06:35:59.996Z,99391.79
2023-06-28T06:38:29.362Z,99393.26
2023-06-28T06:40:58.774Z,99391.45
2023-06-28T06:43:27.492Z,99390.38
2023-06-28T06:45:55.996Z,99402.99
2023-06-28T06:48:24.862Z,99405.08
2023-06-28T06:50:53.610Z,99409.05
2023-06-28T06:53:24.356Z,99412.11
2023-06-28T06:55:53.872Z,99411.69
2023-06-28T06:58:24.432Z,99412.59
2023-06-28T07:00:53.757Z,99411.98
2023-06-28T07:03:22.632Z,99407.25
2023-06-28T07:05:51.703Z,99408.91
2023-06-28T07:08:20.907Z,99420.92
2023-06-28T07:10:49.503Z,99421.88
2023-06-28T07:13:19.390Z,99418.77
2023-06-28T07:15:48.844Z,99423.98
2023-06-28T07:18:17.272Z,99428.91
2023-06-28T07:20:45.980Z,99420.56
2023-06-28T07:23:15.097Z,99426.08
2023-06-28T07:25:43.943Z,99428.24
2023-06-28T07:28:12.753Z,99435.69
2023-06-28T07:30:55.635Z,99419.83
2023-06-28T07:33:24.235Z,99416.73
2023-06-28T07:35:53.051Z,99410.94
2023-06-28T07:38:23.774Z,99423.33
2023-06-28T07:40:54.284Z,99426.14
2023-06-28T07:43:22.790Z,99433.05
2023-06-28T07:45:53.064Z,99434.45
2023-06-28T07:48:22.193Z,99425.06
2023-06-28T07:50:50.790Z,99429.98
2023-06-28T07:53:19.284Z,99419.33
2023-06-28T07:55:47.892Z,99427.87
2023-06-28T07:58:17.079Z,99421.52
2023-06-28T08:00:46.072Z,99417.28
2023-06-28T08:03:14.858Z,99418.94
2023-06-28T08:05:45.207Z,99423.02
2023-06-28T08:08:14.376Z,99407.51
2023-06-28T08:10:43.491Z,99419.73
2023-06-28T08:13:11.690Z,99412.09
2023-06-28T08:15:40.482Z,99419.59
2023-06-28T08:18:10.905Z,99424.66
2023-06-28T08:20:43.387Z,99422.92
2023-06-28T08:23:12.263Z,99421.09
2023-06-28T08:25:42.046Z,99426.73
2023-06-28T08:28:11.587Z,99429.95
2023-06-28T08:30:41.110Z,99418.27
2023-06-28T08:33:09.931Z,99421.24
2023-06-28T08:35:40.167Z,99411.31
2023-06-28T08:38:08.878Z,99422.41
2023-06-28T08:40:38.326Z,99415.72
2023-06-28T08:43:07.100Z,99422.03
2023-06-28T08:45:37.626Z,99411.43
2023-06-28T08:48:16.189Z,99413.25
2023-06-28T08:50:39.899Z,99417.47
2023-06-28T08:53:10.839Z,99405.92
2023-06-28T08:55:40.655Z,99409.64
2023-06-28T08:58:09.981Z,99413.98
2023-06-28T09:00:41.321Z,99406.46
2023-06-28T09:03:11.752Z,99404.67
2023-06-28T09:05:41.291Z,99419.33
2023-06-28T09:08:10.552Z,99409.64
2023-06-28T09:10:40.803Z,99407.45
2023-06-28T09:13:09.292Z,99408.80
2023-06-28T09:15:39.757Z,99413.98
2023-06-28T09:18:08.833Z,99404.73
2023-06-28T09:20:38.820Z,99405.61
2023-06-28T09:23:07.276Z,99404.97
2023-06-28T09:25:36.055Z,99389.27
2023-06-28T09:28:06.578Z,99402.73
2023-06-28T09:30:54.645Z,99405.94
2023-06-28T09:33:24.141Z,99399.94
2023-06-28T09:35:56.698Z,99397.61
2023-06-28T09:38:25.679Z,99405.59
2023-06-28T09:41:01.577Z,99397.90
2023-06-28T09:43:40.239Z,99397.53
2023-06-28T09:46:17.314Z,99400.07
2023-06-28T09:48:50.383Z,99388.88
2023-06-28T09:51:19.851Z,99397.22
2023-06-28T09:53:57.166Z,99393.15
2023-06-28T09:56:35.707Z,99409.52
2023-06-28T09:59:09.251Z,99415.06
2023-06-28T10:01:40.653Z,99419.30
2023-06-28T10:04:10.154Z,99415.44
2023-06-28T10:06:40.905Z,99425.20
2023-06-28T10:09:09.503Z,99413.72
2023-06-28T10:11:39.852Z,99408.83
2023-06-28T10:14:08.198Z,99410.70
2023-06-28T10:16:37.915Z,99412.76
2023-06-28T10:19:10.806Z,99411.75
2023-06-28T10:21:41.770Z,99413.52
2023-06-28T10:24:10.834Z,99412.80
2023-06-28T10:26:40.341Z,99403.70
2023-06-28T10:29:09.115Z,99400.55
2023-06-28T10:31:38.270Z,99406.51
2023-06-28T10:34:08.376Z,99380.05
2023-06-28T10:36:37.219Z,99411.08
2023-06-28T10:39:10.403Z,99414.23
2023-06-28T10:41:39.925Z,99403.72
2023-06-28T10:44:09.247Z,99394.91
2023-06-28T10:46:38.695Z,99391.08
2023-06-28T10:49:08.050Z,99403.83
2023-06-28T10:51:37.646Z,99391.28
2023-06-28T10:54:13.096Z,99394.96
2023-06-28T10:56:52.416Z,99394.13
2023-06-28T10:59:21.631Z,99395.48
2023-06-28T11:01:53.561Z,99385.28
2023-06-28T11:04:26.643Z,99400.92
2023-06-28T11:07:18.835Z,99400.72
2023-06-28T11:10:11.773Z,99402.67
2023-06-28T11:12:42.249Z,99398.31
2023-06-28T11:15:14.648Z,99387.48
2023-06-28T11:17:43.225Z,99386.80
2023-06-28T11:20:14.207Z,99384.95
2023-06-28T11:22:54.070Z,99382.51
2023-06-28T11:25:29.719Z,99369.14
2023-06-28T11:27:59.431Z,99367.13
2023-06-28T11:33:42.528Z,99367.29
2023-06-28T11:36:12.345Z,99364.96
2023-06-28T11:38:45.616Z,99379.58
2023-06-28T11:41:17.671Z,99380.56
2023-06-28T11:43:49.459Z,99375.33
2023-06-28T11:46:21.115Z,99367.86
2023-06-28T11:48:51.197Z,99359.47
2023-06-28T11:51:22.673Z,99362.27
2023-06-28T11:53:51.155Z,99346.98
2023-06-28T11:56:20.123Z,99357.50
2023-06-28T11:58:48.934Z,99363.24
2023-06-28T12:01:24.083Z,99348.55
2023-06-28T12:03:52.626Z,99340.45
2023-06-28T12:06:21.944Z,99363.03
2023-06-28T12:08:51.792Z,99353.25
2023-06-28T12:11:21.624Z,99344.34
2023-06-28T12:13:52.207Z,99340.97
2023-06-28T12:16:22.336Z,99354.19
2023-06-28T12:19:01.403Z,99357.70
2023-06-28T12:21:31.262Z,99352.41
2023-06-28T12:24:21.154Z,99354.59
2023-06-28T12:26:53.530Z,99352.27
2023-06-28T12:29:24.390Z,99347.30
2023-06-28T12:31:56.897Z,99345.84
2023-06-28T12:34:28.649Z,99337.36
2023-06-28T12:37:06.483Z,99342.17
2023-06-28T12:39:37.639Z,99336.16
2023-06-28T12:42:11.834Z,99338.34
2023-06-28T12:44:54.218Z,99349.16
2023-06-28T12:47:25.058Z,99347.56
2023-06-28T12:49:54.053Z,99341.45
2023-06-28T12:52:27.567Z,99335.07
2023-06-28T12:54:58.269Z,99337.20
2023-06-28T12:57:28.960Z,99331.96
2023-06-28T12:59:58.576Z,99335.42
2023-06-28T13:02:27.588Z,99347.45
2023-06-28T13:05:01.850Z,99337.61
2023-06-28T13:07:32.521Z,99340.09
2023-06-28T13:10:04.367Z,99339.38
2023-06-28T13:12:33.392Z,99341.70
2023-06-28T13:15:03.387Z,99349.31
2023-06-28T13:17:33.102Z,99352.73
2023-06-28T13:20:05.510Z,99376.03
2023-06-28T13:22:36.411Z,99360.65
2023-06-28T13:25:06.676Z,99371.40
2023-06-28T13:27:38.149Z,99381.75
2023-06-28T13:30:09.092Z,99371.74
2023-06-28T13:32:39.715Z,99372.48
2023-06-28T13:35:12.082Z,99385.13
2023-06-28T13:37:42.810Z,99376.76
2023-06-28T13:40:14.935Z,99379.89
2023-06-28T13:42:44.438Z,99375.81
2023-06-28T13:45:12.969Z,99377.36
2023-06-28T13:47:42.173Z,99372.08
2023-06-28T13:50:11.873Z,99381.36
2023-06-28T13:52:41.798Z,99373.28
2023-06-28T13:55:13.938Z,99379.12
2023-06-28T13:57:44.778Z,99377.40
2023-06-28T14:00:14.579Z,99377.02
2023-06-28T14:02:44.194Z,99367.74
2023-06-28T14:05:14.560Z,99366.95
2023-06-28T14:07:44.273Z,99365.03
2023-06-28T14:10:13.462Z,99363.63
2023-06-28T14:12:44.812Z,99363.06
2023-06-28T14:15:13.812Z,99370.88
2023-06-28T14:17:45.130Z,99366.64
2023-06-28T14:20:14.252Z,99370.23
2023-06-28T14:22:45.067Z,99368.84
2023-06-28T14:25:18.493Z,99370.00
2023-06-28T14:27:47.263Z,99367.22
2023-06-28T14:30:16.213Z,99352.09
2023-06-28T14:32:47.341Z,99355.14
2023-06-28T14:35:17.290Z,99355.89
2023-06-28T14:37:47.378Z,99354.38
2023-06-28T14:40:18.860Z,99353.67
2023-06-28T14:42:52.744Z,99360.87
2023-06-28T14:45:22.005Z,99357.03
2023-06-28T14:47:51.044Z,99353.72
2023-06-28T14:50:21.092Z,99349.58
2023-06-28T14:52:51.420Z,99358.22
2023-06-28T14:55:19.961Z,99353.19
2023-06-28T14:57:49.450Z,99341.47
2023-06-28T15:00:19.054Z,99343.99
2023-06-28T15:02:49.276Z,99351.23
2023-06-28T15:05:19.776Z,99355.77
2023-06-28T15:07:48.925Z,99362.48
2023-06-28T15:10:17.851Z,99354.41
2023-06-28T15:12:47.415Z,99361.78
2023-06-28T15:15:17.343Z,99357.41
2023-06-28T15:17:48.084Z,99351.89
2023-06-28T15:20:26.645Z,99355.03
2023-06-28T15:22:49.777Z,99353.03
2023-06-28T15:25:18.652Z,99354.91
2023-06-28T15:27:47.551Z,99352.31
2023-06-28T15:30:17.586Z,99359.03
2023-06-28T15:32:48.098Z,99362.72
2023-06-28T15:35:18.657Z,99361.41
2023-06-28T15:37:48.501Z,99360.84
2023-06-28T15:40:17.712Z,99361.03
2023-06-28T15:42:51.424Z,99358.98
2023-06-28T15:45:21.459Z,99351.40
2023-06-28T15:47:51.421Z,99350.80
2023-06-28T15:50:19.955Z,99349.31
2023-06-28T15:52:50.131Z,99349.00
2023-06-28T15:55:27.567Z,99350.92
2023-06-28T15:57:56.242Z,99338.15
2023-06-28T16:00:26.302Z,99339.84
2023-06-28T16:02:55.570Z,99349.62
2023-06-28T16:05:25.251Z,99341.77
2023-06-28T16:07:54.148Z,99346.27
2023-06-28T16:10:23.388Z,99351.09
2023-06-28T16:12:53.159Z,99360.42
2023-06-28T16:15:25.705Z,99354.16
2023-06-28T16:17:54.308Z,99367.40
2023-06-28T16:20:23.300Z,99365.25
2023-06-28T16:22:53.265Z,99364.75
2023-06-28T16:25:22.902Z,99439.44
2023-06-28T16:27:52.485Z,99448.98
2023-06-28T16:30:22.313Z,99458.16
2023-06-28T16:32:51.202Z,99435.98
2023-06-28T16:35:20.835Z,99414.74
2023-06-28T16:37:50.266Z,99413.45
2023-06-28T16:40:19.370Z,99400.41
2023-06-28T16:42:48.728Z,99394.03
2023-06-28T16:45:18.079Z,99388.77
2023-06-28T16:47:47.652Z,99389.88
2023-06-28T16:50:17.085Z,99387.38
2023-06-28T16:52:46.092Z,99382.66
2023-06-28T16:55:14.541Z,99393.49
2023-06-28T16:57:43.681Z,99380.44
2023-06-28T17:00:14.326Z,99380.13
2023-06-28T17:02:44.699Z,99383.45
2023-06-28T17:05:15.770Z,99380.91
2023-06-28T17:07:46.471Z,99389.78
2023-06-28T17:10:15.644Z,99385.90
2023-06-28T17:12:45.276Z,99386.19
2023-06-28T17:15:14.152Z,99382.02
2023-06-28T17:17:47.265Z,99383.68
2023-06-28T17:20:16.445Z,99375.63
2023-06-28T17:22:46.333Z,99372.30
2023-06-28T17:25:15.110Z,99380.33
2023-06-28T17:27:43.996Z,99380.61
2023-06-28T17:30:13.589Z,99385.31
2023-06-28T17:32:42.773Z,99371.70
2023-06-28T17:35:11.729Z,99362.54
2023-06-28T17:37:40.741Z,99367.80
2023-06-28T17:40:11.253Z,99366.13
2023-06-28T17:42:40.553Z,99365.26
2023-06-28T17:45:10.206Z,99365.25
2023-06-28T17:47:40.504Z,99360.80
2023-06-28T17:50:10.770Z,99368.27
2023-06-28T17:52:39.534Z,99363.55
2023-06-28T17:55:09.918Z,99362.98
2023-06-28T17:57:39.292Z,99359.66
2023-06-28T18:00:09.466Z,99362.41
2023-06-28T18:02:40.789Z,99357.12
2023-06-28T18:05:09.261Z,99354.05
2023-06-28T18:07:39.878Z,99362.33
2023-06-28T18:10:09.505Z,99368.06
2023-06-28T18:12:39.388Z,99361.05
2023-06-28T18:15:09.942Z,99367.39
2023-06-28T18:17:38.770Z,99363.78
2023-06-28T18:20:09.397Z,99368.77
2023-06-28T18:22:38.097Z,99369.03
2023-06-28T18:25:07.724Z,99373.45
2023-06-28T18:27:37.213Z,99382.89
2023-06-28T18:30:07.920Z,99390.12
2023-06-28T18:32:36.573Z,99390.13
2023-06-28T18:35:07.542Z,99387.72
2023-06-28T18:37:37.828Z,99403.31
2023-06-28T18:40:08.436Z,99402.52
2023-06-28T18:42:37.666Z,99400.33
2023-06-28T18:45:08.412Z,99393.41
2023-06-28T18:47:37.846Z,99401.45
2023-06-28T18:50:07.197Z,99409.23
2023-06-28T18:52:36.732Z,99408.70
2023-06-28T18:55:06.250Z,99402.33
2023-06-28T18:57:35.839Z,99412.59
2023-06-28T19:00:06.731Z,99413.98
2023-06-28T19:02:35.685Z,99413.14
2023-06-28T19:05:05.364Z,99415.08
2023-06-28T19:07:35.405Z,99410.36
2023-06-28T19:10:05.849Z,99406.77
2023-06-28T19:12:36.138Z,99399.84
2023-06-28T19:15:05.480Z,99405.38
2023-06-28T19:17:36.014Z,99405.09
2023-06-28T19:20:05.948Z,99401.48
2023-06-28T19:22:34.867Z,99407.30
2023-06-28T19:25:04.604Z,99404.26
2023-06-28T19:27:33.578Z,99401.46
2023-06-28T19:30:03.813Z,99398.69
2023-06-28T19:32:33.037Z,99392.84
2023-06-28T19:35:02.511Z,99393.94
2023-06-28T19:37:31.924Z,99392.78
2023-06-28T19:40:00.496Z,99392.68
2023-06-28T19:42:29.373Z,99393.95
2023-06-28T19:44:57.841Z,99400.02
2023-06-28T19:47:26.653Z,99395.55
2023-06-28T19:49:55.439Z,99393.30
2023-06-28T19:52:25.923Z,99394.99
2023-06-28T19:54:55.502Z,99392.52
2023-06-28T19:57:25.712Z,99391.72
2023-06-28T19:59:55.150Z,99390.07
2023-06-28T20:02:24.610Z,99392.00
2023-06-28T20:04:54.313Z,99392.55
2023-06-28T20:07:24.866Z,99393.67
2023-06-28T20:09:53.366Z,99393.41
2023-06-28T20:12:21.962Z,99400.34
2023-06-28T20:14:52.355Z,99399.80
2023-06-28T20:17:20.838Z,99404.78
2023-06-28T20:19:50.168Z,99394.52
2023-06-28T20:22:20.165Z,99391.20
2023-06-28T20:24:51.135Z,99398.41
2023-06-28T20:27:20.580Z,99394.51
2023-06-28T20:29:50.363Z,99398.09
2023-06-28T20:32:19.303Z,99393.09
2023-06-28T20:34:48.173Z,99396.67
2023-06-28T20:37:17.099Z,99390.59
2023-06-28T20:39:46.276Z,99396.39
2023-06-28T20:42:16.880Z,99397.50
2023-06-28T20:44:47.089Z,99389.19
2023-06-28T20:47:18.380Z,99386.70
2023-06-28T20:49:48.064Z,99388.91
2023-06-28T20:52:19.102Z,99388.63
2023-06-28T20:54:51.337Z,99386.38
2023-06-28T20:57:20.621Z,99382.22
2023-06-28T20:59:51.405Z,99384.44
2023-06-28T21:02:20.593Z,99384.98
2023-06-28T21:04:52.094Z,99382.22
2023-06-28T21:07:22.528Z,99380.83
2023-06-28T21:09:51.857Z,99378.61
2023-06-28T21:12:20.961Z,99380.81
2023-06-28T21:14:49.454Z,99377.20
2023-06-28T21:17:18.074Z,99377.23
2023-06-28T21:19:46.961Z,99377.53
2023-06-28T21:22:16.023Z,99375.59
2023-06-28T21:24:44.957Z,99380.84
2023-06-28T21:27:13.679Z,99377.80
2023-06-28T21:29:42.971Z,99376.13
2023-06-28T21:32:11.563Z,99370.86
2023-06-28T21:34:44.311Z,99371.95
2023-06-28T21:37:13.131Z,99369.77
2023-06-28T21:39:43.192Z,99370.89
2023-06-28T21:42:12.172Z,99375.59
2023-06-28T21:44:40.924Z,99376.42
2023-06-28T21:47:09.408Z,99370.06
2023-06-28T21:49:40.584Z,99369.48
2023-06-28T21:52:09.548Z,99371.97
2023-06-28T21:54:39.206Z,99364.22
2023-06-28T21:57:08.195Z,99362.81
2023-06-28T21:59:37.436Z,99359.47
2023-06-28T22:02:07.230Z,99360.84
2023-06-28T22:04:36.328Z,99359.48
2023-06-28T22:07:07.106Z,99355.88
2023-06-28T22:09:37.809Z,99361.13
2023-06-28T22:12:07.517Z,99358.34
2023-06-28T22:14:38.322Z,99351.96
2023-06-28T22:17:12.827Z,99349.17
2023-06-28T22:19:42.910Z,99342.23
2023-06-28T22:22:12.088Z,99345.00
2023-06-28T22:24:41.660Z,99329.22
2023-06-28T22:27:10.898Z,99337.52
2023-06-28T22:29:41.236Z,99327.56
2023-06-28T22:32:10.152Z,99335.05
2023-06-28T22:34:39.272Z,99336.17
2023-06-28T22:37:07.929Z,99338.09
2023-06-28T22:39:37.113Z,99329.77
2023-06-28T22:42:07.802Z,99325.63
2023-06-28T22:44:37.566Z,99326.75
2023-06-28T22:47:07.560Z,99329.25
2023-06-28T22:49:36.248Z,99323.72
2023-06-28T22:52:05.539Z,99319.56
2023-06-28T22:54:36.254Z,99325.36
2023-06-28T22:57:06.161Z,99317.88
2023-06-28T22:59:34.401Z,99310.96
2023-06-28T23:02:03.804Z,99314.84
2023-06-28T23:04:32.503Z,99311.80
2023-06-28T23:07:04.886Z,99304.88
2023-06-28T23:09:34.716Z,99309.84
2023-06-28T23:12:04.419Z,99310.67
2023-06-28T23:14:33.760Z,99305.41
2023-06-28T23:17:04.378Z,99301.54
2023-06-28T23:19:34.118Z,99299.58
2023-06-28T23:22:04.247Z,99306.48
2023-06-28T23:24:32.706Z,99302.58
2023-06-28T23:27:02.626Z,99298.95
2023-06-28T23:29:32.644Z,99288.70
2023-06-28T23:32:03.292Z,99293.41
2023-06-28T23:34:32.176Z,99292.29
2023-06-28T23:37:01.684Z,99290.59
2023-06-28T23:39:30.452Z,99291.13
2023-06-28T23:41:59.440Z,99286.97
2023-06-28T23:44:28.229Z,99282.25
2023-06-28T23:46:57.351Z,99280.30
2023-06-28T23:49:27.480Z,99278.92
2023-06-28T23:51:57.295Z,99285.55
2023-06-28T23:54:27.150Z,99286.65
2023-06-28T23:56:57.836Z,99275.88
2023-06-28T23:59:26.208Z,99280.57
